createdAt,value
2018-06-23T00:03:51.892Z,2.10
2018-06-23T00:08:55.100Z,1.77
2018-06-23T00:13:58.386Z,2.50
2018-06-23T00:19:01.972Z,1.90
2018-06-23T00:24:05.789Z,1.87
2018-06-23T00:29:09.034Z,1.90
2018-06-23T00:34:12.341Z,2.03
2018-06-23T00:39:15.574Z,1.73
2018-06-23T00:44:18.785Z,1.80
2018-06-23T00:49:22.228Z,1.60
2018-06-23T00:54:25.691Z,1.87
2018-06-23T00:59:38.967Z,1.73
2018-06-23T01:04:42.352Z,1.57
2018-06-23T01:09:45.544Z,1.80
2018-06-23T01:14:49.058Z,1.30
2018-06-23T01:19:52.286Z,1.50
2018-06-23T01:24:55.514Z,2.00
2018-06-23T01:29:58.756Z,1.47
2018-06-23T01:35:02.267Z,1.60
2018-06-23T01:40:05.626Z,1.90
2018-06-23T01:45:09.580Z,1.73
2018-06-23T01:50:12.849Z,1.50
2018-06-23T01:55:16.231Z,2.00
2018-06-23T02:00:19.507Z,1.77
2018-06-23T02:05:22.827Z,1.63
2018-06-23T02:10:26.424Z,1.60
2018-06-23T02:15:35.217Z,1.43
2018-06-23T02:20:43.897Z,1.73
2018-06-23T02:25:52.629Z,1.40
2018-06-23T02:31:01.193Z,1.63
2018-06-23T02:36:04.674Z,1.20
2018-06-23T02:41:08.720Z,1.50
2018-06-23T02:46:18.588Z,1.50
2018-06-23T02:51:22.367Z,1.43
2018-06-23T02:56:25.666Z,1.33
2018-06-23T03:01:28.938Z,1.57
2018-06-23T03:06:32.490Z,1.30
2018-06-23T03:11:35.861Z,1.60
2018-06-23T03:16:39.139Z,1.40
2018-06-23T03:21:42.932Z,1.67
2018-06-23T03:26:46.812Z,1.23
2018-06-23T03:31:50.555Z,1.37
2018-06-23T03:36:53.900Z,1.40
2018-06-23T03:41:57.360Z,1.17
2018-06-23T03:47:01.663Z,1.63
2018-06-23T03:52:04.904Z,1.10
2018-06-23T03:57:08.184Z,1.03
2018-06-23T04:02:11.421Z,1.00
2018-06-23T04:07:14.704Z,1.20
2018-06-23T04:12:17.975Z,1.00
2018-06-23T04:17:21.657Z,1.10
2018-06-23T04:22:24.990Z,1.20
2018-06-23T04:27:28.317Z,0.93
2018-06-23T04:32:31.626Z,1.10
2018-06-23T04:37:35.102Z,1.20
2018-06-23T04:42:38.450Z,1.10
2018-06-23T04:47:42.268Z,1.20
2018-06-23T04:52:45.623Z,1.00
2018-06-23T04:57:48.871Z,1.03
2018-06-23T05:02:52.172Z,0.97
2018-06-23T05:07:55.484Z,0.90
2018-06-23T05:12:58.736Z,0.90
2018-06-23T05:18:03.454Z,1.03
2018-06-23T05:23:06.581Z,0.70
2018-06-23T05:28:10.178Z,1.20
2018-06-23T05:33:17.195Z,1.20
2018-06-23T05:38:20.575Z,1.10
2018-06-23T05:43:23.779Z,0.93
2018-06-23T05:48:27.082Z,1.33
2018-06-23T05:53:30.550Z,0.90
2018-06-23T05:58:33.902Z,0.70
2018-06-23T06:03:37.188Z,0.93
2018-06-23T06:08:40.542Z,0.80
2018-06-23T06:13:43.811Z,0.90
2018-06-23T06:18:47.169Z,1.57
2018-06-23T06:23:50.740Z,2.60
2018-06-23T06:28:54.056Z,5.47
2018-06-23T06:33:57.512Z,4.30
2018-06-23T06:39:01.297Z,4.07
2018-06-23T06:44:04.672Z,3.77
2018-06-23T06:49:07.965Z,3.53
2018-06-23T06:54:11.544Z,2.50
2018-06-23T06:59:15.260Z,3.13
2018-06-23T07:04:19.723Z,2.60
2018-06-23T07:09:23.275Z,2.50
2018-06-23T07:14:26.663Z,2.30
2018-06-23T07:19:30.039Z,3.37
2018-06-23T07:24:33.518Z,4.20
2018-06-23T07:29:37.005Z,4.60
2018-06-23T07:34:40.690Z,3.73
2018-06-23T07:39:44.127Z,3.50
2018-06-23T07:44:47.607Z,3.10
2018-06-23T07:49:50.964Z,2.80
2018-06-23T07:54:54.538Z,3.13
2018-06-23T07:59:57.852Z,2.70
2018-06-23T08:05:03.831Z,3.00
2018-06-23T08:10:07.080Z,3.00
2018-06-23T08:15:10.574Z,2.70
2018-06-23T08:20:14.023Z,3.10
2018-06-23T08:25:17.292Z,2.30
2018-06-23T08:30:20.595Z,1.90
2018-06-23T08:35:24.096Z,2.80
2018-06-23T08:40:27.671Z,2.77
2018-06-23T08:45:30.980Z,2.47
2018-06-23T08:50:34.601Z,1.70
2018-06-23T08:55:38.098Z,2.57
2018-06-23T09:00:41.429Z,1.60
2018-06-23T09:05:44.704Z,2.20
2018-06-23T09:10:48.127Z,2.17
2018-06-23T09:15:53.383Z,2.83
2018-06-23T09:20:58.083Z,2.23
2018-06-23T09:26:01.777Z,2.70
2018-06-23T09:31:05.395Z,2.10
2018-06-23T09:36:09.064Z,2.10
2018-06-23T09:41:12.385Z,2.60
2018-06-23T09:46:15.910Z,1.90
2018-06-23T09:51:19.719Z,2.67
2018-06-23T09:56:23.191Z,4.27
2018-06-23T10:01:26.660Z,3.37
2018-06-23T10:06:29.962Z,2.60
2018-06-23T10:11:33.228Z,3.40
2018-06-23T10:16:36.786Z,3.30
2018-06-23T10:21:40.153Z,2.83
2018-06-23T10:26:43.959Z,1.80
2018-06-23T10:31:47.712Z,2.30
2018-06-23T10:36:51.397Z,2.57
2018-06-23T10:41:54.891Z,3.20
2018-06-23T10:46:58.890Z,2.80
2018-06-23T10:52:02.250Z,3.70
2018-06-23T10:57:05.789Z,3.00
2018-06-23T11:02:09.313Z,2.97
2018-06-23T11:07:13.396Z,2.90
2018-06-23T11:12:16.741Z,2.77
2018-06-23T11:17:20.393Z,2.03
2018-06-23T11:22:24.198Z,2.10
2018-06-23T11:27:27.587Z,2.30
2018-06-23T11:32:30.905Z,2.27
2018-06-23T11:37:34.266Z,2.10
2018-06-23T11:42:37.479Z,2.10
2018-06-23T11:47:40.757Z,2.47
2018-06-23T11:52:44.225Z,2.17
2018-06-23T11:57:47.512Z,2.17
2018-06-23T12:02:51.379Z,2.40
2018-06-23T12:07:54.647Z,2.30
2018-06-23T12:12:57.951Z,2.40
2018-06-23T12:18:01.253Z,2.53
2018-06-23T12:23:04.574Z,2.40
2018-06-23T12:28:08.233Z,2.63
2018-06-23T12:33:11.654Z,2.17
2018-06-23T12:38:14.966Z,2.07
2018-06-23T12:43:18.350Z,2.33
2018-06-23T12:48:22.054Z,2.40
2018-06-23T12:53:25.654Z,2.57
2018-06-23T12:58:28.933Z,2.17
2018-06-23T13:03:33.099Z,2.00
2018-06-23T13:08:36.471Z,2.10
2018-06-23T13:13:39.880Z,2.40
2018-06-23T13:18:43.268Z,2.30
2018-06-23T13:23:46.568Z,2.57
2018-06-23T13:28:49.838Z,2.60
2018-06-23T13:33:53.354Z,2.30
2018-06-23T13:38:56.802Z,2.30
2018-06-23T13:44:00.204Z,2.00
2018-06-23T13:49:03.481Z,2.70
2018-06-23T13:54:06.803Z,2.47
2018-06-23T13:59:10.024Z,2.27
2018-06-23T14:04:13.405Z,2.60
2018-06-23T14:09:16.623Z,2.40
2018-06-23T14:14:20.135Z,2.40
2018-06-23T14:19:23.811Z,2.47
2018-06-23T14:24:27.143Z,2.37
2018-06-23T14:29:30.538Z,2.53
2018-06-23T14:34:33.775Z,2.07
2018-06-23T14:39:37.243Z,2.10
2018-06-23T14:44:40.742Z,2.63
2018-06-23T14:49:44.226Z,2.13
2018-06-23T14:54:47.886Z,2.13
2018-06-23T14:59:51.130Z,2.67
2018-06-23T15:04:54.553Z,2.97
2018-06-23T15:10:09.247Z,2.80
2018-06-23T15:15:13.645Z,2.10
2018-06-23T15:20:16.914Z,2.83
2018-06-23T15:25:21.444Z,2.70
2018-06-23T15:30:24.833Z,2.43
2018-06-23T15:35:28.356Z,3.30
2018-06-23T15:40:32.067Z,3.10
2018-06-23T15:45:36.639Z,3.90
2018-06-23T15:50:40.187Z,3.93
2018-06-23T15:55:44.087Z,2.83
2018-06-23T16:00:48.209Z,3.60
2018-06-23T16:05:51.554Z,3.67
2018-06-23T16:10:54.957Z,2.93
2018-06-23T16:15:58.270Z,3.87
2018-06-23T16:21:02.623Z,3.87
2018-06-23T16:26:05.888Z,3.17
2018-06-23T16:31:09.364Z,3.60
2018-06-23T16:36:13.003Z,3.70
2018-06-23T16:41:16.314Z,3.03
2018-06-23T16:46:19.990Z,3.70
2018-06-23T16:51:23.347Z,3.83
2018-06-23T16:56:26.764Z,3.60
2018-06-23T17:01:30.052Z,4.00
2018-06-23T17:06:33.277Z,3.60
2018-06-23T17:11:37.312Z,3.53
2018-06-23T17:16:41.902Z,3.43
2018-06-23T17:21:45.397Z,3.30
2018-06-23T17:26:48.643Z,3.30
2018-06-23T17:31:52.191Z,3.40
2018-06-23T17:36:55.731Z,3.57
2018-06-23T17:41:58.988Z,3.90
2018-06-23T17:47:02.550Z,3.23
2018-06-23T17:52:05.908Z,3.40
2018-06-23T17:57:09.251Z,3.40
2018-06-23T18:02:12.613Z,3.40
2018-06-23T18:07:16.064Z,2.80
2018-06-23T18:12:20.169Z,3.70
2018-06-23T18:17:23.714Z,2.80
2018-06-23T18:22:27.247Z,2.87
2018-06-23T18:27:30.579Z,3.30
2018-06-23T18:32:34.215Z,3.53
2018-06-23T18:37:37.492Z,3.07
2018-06-23T18:42:41.120Z,3.10
2018-06-23T18:47:44.705Z,2.50
2018-06-23T18:52:48.411Z,3.00
2018-06-23T18:57:52.674Z,3.30
2018-06-23T19:02:56.433Z,2.80
2018-06-23T19:07:59.863Z,3.40
2018-06-23T19:13:03.111Z,3.20
2018-06-23T19:18:06.712Z,3.23
2018-06-23T19:23:10.602Z,3.17
2018-06-23T19:28:13.918Z,3.00
2018-06-23T19:33:17.276Z,2.63
2018-06-23T19:38:21.014Z,3.30
2018-06-23T19:43:25.111Z,3.30
2018-06-23T19:48:28.707Z,3.13
2018-06-23T19:53:32.608Z,2.70
2018-06-23T19:58:36.813Z,2.50
2018-06-23T20:03:39.988Z,3.60
2018-06-23T20:08:43.277Z,3.70
2018-06-23T20:13:46.668Z,3.70
2018-06-23T20:18:49.860Z,3.23
2018-06-23T20:23:53.835Z,3.13
2018-06-23T20:28:57.239Z,3.23
2018-06-23T20:34:00.978Z,3.37
2018-06-23T20:39:05.972Z,3.60
2018-06-23T20:44:09.559Z,3.40
2018-06-23T20:49:12.892Z,2.87
2018-06-23T20:54:16.262Z,3.40
2018-06-23T20:59:19.656Z,2.90
2018-06-23T21:04:23.437Z,2.97
2018-06-23T21:09:26.841Z,3.67
2018-06-23T21:14:30.458Z,2.70
2018-06-23T21:19:35.030Z,2.70
2018-06-23T21:24:38.399Z,3.13
2018-06-23T21:29:41.697Z,3.17
2018-06-23T21:34:44.981Z,2.70
2018-06-23T21:39:48.599Z,4.87
2018-06-23T21:44:52.737Z,3.90
2018-06-23T21:49:55.686Z,5.70
2018-06-23T21:54:58.951Z,5.42
2018-06-23T22:00:02.735Z,4.17
2018-06-23T22:05:06.383Z,4.13
2018-06-23T22:10:09.925Z,4.17
2018-06-23T22:15:15.664Z,3.67
2018-06-23T22:20:19.951Z,3.60
2018-06-23T22:25:23.962Z,3.13
2018-06-23T22:30:27.168Z,3.30
2018-06-23T22:35:30.416Z,3.20
2018-06-23T22:40:33.817Z,3.10
2018-06-23T22:45:37.077Z,3.27
2018-06-23T22:50:40.407Z,2.93
2018-06-23T22:55:43.735Z,2.53
2018-06-23T23:00:47.067Z,3.17
2018-06-23T23:05:50.278Z,2.53
2018-06-23T23:10:53.527Z,2.60
2018-06-23T23:15:56.761Z,2.20
2018-06-23T23:20:59.987Z,2.70
2018-06-23T23:26:03.534Z,2.50
2018-06-23T23:31:06.889Z,3.23
2018-06-23T23:36:10.689Z,2.77
2018-06-23T23:41:13.877Z,3.10
2018-06-23T23:46:17.237Z,2.63
2018-06-23T23:51:20.455Z,2.30
2018-06-23T23:56:23.694Z,2.00
